This is the latest recevied weather packets stored in our database for station/object W0DXV. If no packets are shown the sender has not sent any weather packets the latest 10 day(s).
| Time | Temp. | Humidity | Pressure | Rain* | Wind** | Luminosity | Snow |
|---|---|---|---|---|---|---|---|
| 1777500669 | 24.44° C | 68% | 1003.7 hPa | 0 mm | - | 82 W/m² | - |
| 1777500364 | 24.44° C | 68% | 1003.6 hPa | 0 mm | - | 75 W/m² | - |
| 1777500061 | 24.44° C | 69% | 1003.5 hPa | 0 mm | - | 106 W/m² | - |
| 1777499757 | 24.44° C | 70% | 1004 hPa | 0 mm | - | 95 W/m² | - |
| 1777499454 | 25° C | 68% | 1003.7 hPa | 0 mm | - | 105 W/m² | - |
| 1777499153 | 25° C | 65% | 1003.6 hPa | 0 mm | - | 85 W/m² | - |
| 1777498849 | 25° C | 65% | 1003.9 hPa | 0 mm | - | 85 W/m² | - |
| 1777498545 | 25° C | 65% | 1004.1 hPa | 0 mm | - | 89 W/m² | - |
| 1777498241 | 25° C | 65% | 1004.1 hPa | 0 mm | - | 107 W/m² | - |
| 1777497940 | 25° C | 67% | 1004.2 hPa | 0 mm | - | 89 W/m² | - |
| 1777497635 | 24.44° C | 67% | 1004.3 hPa | 0 mm | - | 94 W/m² | - |
| 1777497332 | 24.44° C | 71% | 1004.5 hPa | 0 mm | - | 93 W/m² | - |
| 1777497028 | 24.44° C | 71% | 1004.3 hPa | 0 mm | - | 172 W/m² | - |
| 1777496725 | 25° C | 69% | 1004.5 hPa | 0 mm | - | 86 W/m² | - |
| 1777496422 | 25° C | 68% | 1004.4 hPa | 0 mm | - | 99 W/m² | - |
| 1777496118 | 25° C | 67% | 1004.3 hPa | 0 mm | - | 143 W/m² | - |
| 1777495815 | 25° C | 68% | 1004.2 hPa | 0 mm | - | 93 W/m² | - |
| 1777495510 | 25° C | 69% | 1004.2 hPa | 0 mm | - | 129 W/m² | - |
| 1777495207 | 25° C | 69% | 1004.4 hPa | 0 mm | - | 152 W/m² | - |
| 1777494904 | 25.56° C | 65% | 1004.5 hPa | 0 mm | - | 77 W/m² | - |
| 1777494601 | 26.11° C | 63% | 1004.6 hPa | 0 mm | - | 122 W/m² | - |
| 1777494298 | 26.67° C | 60% | 1004.6 hPa | 0 mm | - | 263 W/m² | - |
| 1777493994 | 26.67° C | 62% | 1004.5 hPa | 0 mm | - | 563 W/m² | - |
| 1777493693 | 26.11° C | 63% | 1004.9 hPa | 0 mm | - | 523 W/m² | - |
| 1777493390 | 26.11° C | 65% | 1004.5 hPa | 0 mm | - | 573 W/m² | - |
* Rain latest hour (hover to see other rain measurements)
** Current wind speed in m/s (hover to see current wind gust speed)